Time,TemperatureF,DewpointF,PressureIn,WindDirection,WindDirectionDegrees,WindSpeedMPH,WindSpeedGustMPH,Humidity,HourlyPrecipIn,Conditions,Clouds,dailyrainin,SoftwareType,DateUTC
2013-08-23 00:00:00,63.9,59.2,30.03,North,-999,0.0,0.0,85,0.00,,,-99.99,FreeWX 2.05,2013-08-22 23:00:00,
2013-08-23 00:10:00,63.7,59.0,30.03,North,-999,0.0,0.0,85,0.00,,,-99.99,FreeWX 2.05,2013-08-22 23:10:00,
2013-08-23 00:15:00,63.7,59.4,30.03,North,-999,0.0,0.0,86,0.00,,,-99.99,FreeWX 2.05,2013-08-22 23:15:00,
2013-08-23 00:25:00,63.7,59.4,30.03,North,-999,0.0,0.0,86,0.00,,,-99.99,FreeWX 2.05,2013-08-22 23:25:00,
2013-08-23 00:30:00,63.5,59.2,30.03,North,-999,0.0,0.0,86,0.00,,,-99.99,FreeWX 2.05,2013-08-22 23:30:00,
2013-08-23 00:35:00,63.5,59.2,30.03,North,-999,0.0,0.0,86,0.00,,,-99.99,FreeWX 2.05,2013-08-22 23:35:00,
2013-08-23 00:40:00,63.5,59.2,30.03,North,-999,0.0,0.0,86,0.00,,,-99.99,FreeWX 2.05,2013-08-22 23:40:00,
2013-08-23 00:45:00,63.5,59.5,30.03,North,-999,0.0,0.0,87,0.00,,,-99.99,FreeWX 2.05,2013-08-22 23:45:00,
2013-08-23 00:50:00,63.5,59.5,30.03,North,-999,0.0,0.0,87,0.00,,,-99.99,FreeWX 2.05,2013-08-22 23:50:00,
2013-08-23 00:55:00,63.3,59.4,30.03,North,-999,0.0,0.0,87,0.00,,,-99.99,FreeWX 2.05,2013-08-22 23:55:00,
2013-08-23 01:00:00,63.3,59.4,30.03,North,-999,0.0,0.0,87,0.00,,,-99.99,FreeWX 2.05,2013-08-23 00:00:00,
2013-08-23 01:10:00,63.1,59.2,30.03,North,-999,0.0,0.0,87,0.00,,,-99.99,FreeWX 2.05,2013-08-23 00:10:00,
2013-08-23 01:15:00,63.1,59.2,30.03,North,-999,0.0,0.0,87,0.00,,,-99.99,FreeWX 2.05,2013-08-23 00:15:00,
2013-08-23 01:25:00,63.0,59.4,30.03,North,-999,0.0,0.0,88,0.00,,,-99.99,FreeWX 2.05,2013-08-23 00:25:00,
2013-08-23 01:30:00,62.8,59.2,30.03,North,-999,0.0,0.0,88,0.00,,,-99.99,FreeWX 2.05,2013-08-23 00:30:00,
2013-08-23 01:40:00,62.6,59.0,30.03,North,-999,0.0,0.0,88,0.00,,,-99.99,FreeWX 2.05,2013-08-23 00:40:00,
2013-08-23 01:45:00,62.6,59.0,30.03,North,-999,0.0,0.0,88,0.00,,,-99.99,FreeWX 2.05,2013-08-23 00:45:00,
2013-08-23 01:55:00,62.6,59.0,30.00,North,-999,0.0,0.0,88,0.00,,,-99.99,FreeWX 2.05,2013-08-23 00:55:00,
2013-08-23 02:00:00,62.4,59.2,30.00,North,-999,0.0,4.9,89,0.00,,,-99.99,FreeWX 2.05,2013-08-23 01:00:00,
2013-08-23 02:10:00,62.4,59.2,30.00,North,-999,0.0,4.5,89,0.00,,,-99.99,FreeWX 2.05,2013-08-23 01:10:00,
2013-08-23 02:15:00,62.4,59.2,30.00,North,-999,0.0,4.0,89,0.00,,,-99.99,FreeWX 2.05,2013-08-23 01:15:00,
2013-08-23 02:25:00,62.4,59.2,30.00,North,-999,0.0,4.0,89,0.00,,,-99.99,FreeWX 2.05,2013-08-23 01:25:00,
2013-08-23 02:30:00,62.2,59.0,30.00,North,-999,0.0,2.7,89,0.00,,,-99.99,FreeWX 2.05,2013-08-23 01:30:00,
2013-08-23 02:40:00,62.2,59.0,30.00,North,-999,0.0,4.9,89,0.00,,,-99.99,FreeWX 2.05,2013-08-23 01:40:00,
2013-08-23 02:45:00,62.2,59.0,30.00,North,-999,0.0,3.6,89,0.00,,,-99.99,FreeWX 2.05,2013-08-23 01:45:00,
2013-08-23 02:50:00,62.2,59.2,30.00,North,-999,0.0,3.1,90,0.00,,,-99.99,FreeWX 2.05,2013-08-23 01:50:00,
2013-08-23 02:55:00,62.2,59.2,30.00,North,-999,0.0,0.0,90,0.00,,,-99.99,FreeWX 2.05,2013-08-23 01:55:00,
2013-08-23 03:05:00,62.1,59.0,30.00,North,-999,0.0,0.0,90,0.00,,,-99.99,FreeWX 2.05,2013-08-23 02:05:00,
2013-08-23 03:10:00,61.9,58.6,30.00,North,-999,0.0,0.0,89,0.00,,,-99.99,FreeWX 2.05,2013-08-23 02:10:00,
2013-08-23 03:15:00,61.7,58.8,30.00,North,-999,0.0,0.0,90,0.00,,,-99.99,FreeWX 2.05,2013-08-23 02:15:00,
2013-08-23 03:20:00,61.9,59.0,30.00,North,-999,0.0,4.0,90,0.00,,,-99.99,FreeWX 2.05,2013-08-23 02:20:00,
2013-08-23 03:30:00,61.9,59.0,30.00,North,-999,0.0,0.0,90,0.00,,,-99.99,FreeWX 2.05,2013-08-23 02:30:00,
2013-08-23 03:40:00,62.1,59.0,30.00,East,88,1.0,4.0,90,0.00,,,-99.99,FreeWX 2.05,2013-08-23 02:40:00,
2013-08-23 03:45:00,62.1,59.4,30.00,East,91,1.0,6.7,91,0.00,,,-99.99,FreeWX 2.05,2013-08-23 02:45:00,
2013-08-23 03:50:00,62.1,59.4,30.00,East,89,1.0,4.5,91,0.00,,,-99.99,FreeWX 2.05,2013-08-23 02:50:00,
2013-08-23 03:55:00,62.1,59.4,30.00,East,90,1.0,4.9,91,0.00,,,-99.99,FreeWX 2.05,2013-08-23 02:55:00,
2013-08-23 04:00:00,62.1,59.4,30.00,East,98,1.0,5.4,91,0.00,,,-99.99,FreeWX 2.05,2013-08-23 03:00:00,
2013-08-23 04:10:00,62.1,59.7,30.00,ENE,77,1.0,6.3,92,0.00,,,-99.99,FreeWX 2.05,2013-08-23 03:10:00,
2013-08-23 04:15:00,62.1,59.7,30.00,East,82,1.0,5.4,92,0.00,,,-99.99,FreeWX 2.05,2013-08-23 03:15:00,
2013-08-23 04:20:00,62.1,59.7,30.00,East,83,1.0,5.4,92,0.00,,,-99.99,FreeWX 2.05,2013-08-23 03:20:00,
2013-08-23 04:25:00,61.9,59.5,30.00,North,-999,0.0,4.9,92,0.00,,,-99.99,FreeWX 2.05,2013-08-23 03:25:00,
2013-08-23 04:35:00,61.9,59.5,30.00,East,86,1.0,5.4,92,0.00,,,-99.99,FreeWX 2.05,2013-08-23 03:35:00,
2013-08-23 04:40:00,61.9,59.9,29.97,East,92,1.0,3.6,93,0.00,,,-99.99,FreeWX 2.05,2013-08-23 03:40:00,
2013-08-23 04:45:00,61.9,59.9,29.97,North,-999,0.0,4.0,93,0.00,,,-99.99,FreeWX 2.05,2013-08-23 03:45:00,
2013-08-23 04:55:00,61.7,59.7,30.00,North,-999,0.0,4.0,93,0.00,,,-99.99,FreeWX 2.05,2013-08-23 03:55:00,
2013-08-23 05:00:00,61.7,59.7,30.00,North,-999,0.0,3.6,93,0.00,,,-99.99,FreeWX 2.05,2013-08-23 04:00:00,
2013-08-23 05:05:00,61.7,59.7,30.00,North,-999,0.0,4.0,93,0.00,,,-99.99,FreeWX 2.05,2013-08-23 04:05:00,
2013-08-23 05:10:00,61.7,59.9,30.00,North,-999,0.0,0.0,94,0.00,,,-99.99,FreeWX 2.05,2013-08-23 04:10:00,
2013-08-23 05:15:00,61.5,59.7,30.00,North,-999,0.0,3.6,94,0.00,,,-99.99,FreeWX 2.05,2013-08-23 04:15:00,
2013-08-23 05:20:00,61.5,59.7,30.00,North,-999,0.0,4.5,94,0.00,,,-99.99,FreeWX 2.05,2013-08-23 04:20:00,
2013-08-23 05:25:00,61.5,59.7,30.00,North,-999,0.0,3.1,94,0.00,,,-99.99,FreeWX 2.05,2013-08-23 04:25:00,
2013-08-23 05:30:00,61.3,59.5,30.00,North,-999,0.0,0.0,94,0.00,,,-99.99,FreeWX 2.05,2013-08-23 04:30:00,
2013-08-23 05:35:00,61.3,59.5,30.00,North,-999,0.0,3.1,94,0.00,,,-99.99,FreeWX 2.05,2013-08-23 04:35:00,
2013-08-23 05:40:00,61.3,59.5,29.97,North,-999,0.0,0.0,94,0.00,,,-99.99,FreeWX 2.05,2013-08-23 04:40:00,
2013-08-23 05:45:00,61.2,59.4,29.97,North,-999,0.0,0.0,94,0.00,,,-99.99,FreeWX 2.05,2013-08-23 04:45:00,
2013-08-23 05:50:00,61.0,59.2,29.97,North,-999,0.0,0.0,94,0.00,,,-99.99,FreeWX 2.05,2013-08-23 04:50:00,
2013-08-23 05:55:00,61.0,59.2,29.97,North,-999,0.0,4.0,94,0.00,,,-99.99,FreeWX 2.05,2013-08-23 04:55:00,
2013-08-23 06:00:00,61.2,59.4,29.97,North,-999,0.0,3.1,94,0.00,,,-99.99,FreeWX 2.05,2013-08-23 05:00:00,
2013-08-23 06:05:00,61.2,59.4,29.97,North,-999,0.0,0.0,94,0.00,,,-99.99,FreeWX 2.05,2013-08-23 05:05:00,
2013-08-23 06:15:00,61.0,59.2,29.97,North,-999,0.0,0.0,94,0.00,,,-99.99,FreeWX 2.05,2013-08-23 05:15:00,
2013-08-23 06:20:00,61.0,59.2,29.97,North,-999,0.0,0.0,94,0.00,,,-99.99,FreeWX 2.05,2013-08-23 05:20:00,
2013-08-23 06:30:00,61.2,59.4,30.00,North,-999,0.0,4.0,94,0.00,,,-99.99,FreeWX 2.05,2013-08-23 05:30:00,
2013-08-23 06:35:00,61.2,59.4,30.00,North,-999,0.0,3.6,94,0.00,,,-99.99,FreeWX 2.05,2013-08-23 05:35:00,
2013-08-23 06:45:00,61.3,59.9,29.97,North,-999,0.0,3.6,95,0.00,,,-99.99,FreeWX 2.05,2013-08-23 05:45:00,
2013-08-23 06:50:00,61.3,59.9,29.97,North,-999,0.0,4.0,95,0.00,,,-99.99,FreeWX 2.05,2013-08-23 05:50:00,
2013-08-23 07:00:00,61.5,60.1,29.97,North,-999,0.0,5.8,95,0.00,,,-99.99,FreeWX 2.05,2013-08-23 06:00:00,
2013-08-23 07:10:00,61.9,60.4,29.97,ENE,65,1.0,4.5,95,0.00,,,-99.99,FreeWX 2.05,2013-08-23 06:10:00,
2013-08-23 07:20:00,62.2,60.8,29.97,ENE,68,1.0,4.5,95,0.00,,,-99.99,FreeWX 2.05,2013-08-23 06:20:00,
2013-08-23 07:25:00,62.6,61.2,29.97,ENE,68,1.0,5.4,95,0.00,,,-99.99,FreeWX 2.05,2013-08-23 06:25:00,
2013-08-23 07:30:00,62.8,61.3,29.97,North,-999,0.0,3.6,95,0.00,,,-99.99,FreeWX 2.05,2013-08-23 06:30:00,
2013-08-23 07:40:00,63.3,62.2,29.97,ENE,61,2.0,6.9,96,0.00,,,-99.99,FreeWX 2.05,2013-08-23 06:40:00,
2013-08-23 07:50:00,63.9,62.4,29.97,East,92,1.0,4.9,95,0.00,,,-99.99,FreeWX 2.05,2013-08-23 06:50:00,
2013-08-23 07:55:00,64.4,63.3,29.97,East,89,1.0,5.8,96,0.00,,,-99.99,FreeWX 2.05,2013-08-23 06:55:00,
2013-08-23 08:00:00,64.9,63.7,29.97,NE,54,1.0,3.1,96,0.00,,,-99.99,FreeWX 2.05,2013-08-23 07:00:00,
2013-08-23 08:10:00,66.0,64.8,29.97,ENE,68,1.0,7.4,96,0.00,,,-99.99,FreeWX 2.05,2013-08-23 07:10:00,
2013-08-23 08:20:00,66.9,65.7,29.97,ENE,58,2.0,4.5,96,0.00,,,-99.99,FreeWX 2.05,2013-08-23 07:20:00,
2013-08-23 08:25:00,67.3,65.8,29.97,East,80,2.0,5.8,95,0.00,,,-99.99,FreeWX 2.05,2013-08-23 07:25:00,
2013-08-23 08:30:00,67.3,65.8,29.97,East,94,3.0,5.8,95,0.00,,,-99.99,FreeWX 2.05,2013-08-23 07:30:00,
2013-08-23 08:35:00,67.5,65.7,29.97,East,82,2.0,6.7,94,0.00,,,-99.99,FreeWX 2.05,2013-08-23 07:35:00,
2013-08-23 08:45:00,68.0,65.7,29.97,East,92,2.0,5.8,92,0.00,,,-99.99,FreeWX 2.05,2013-08-23 07:45:00,
2013-08-23 08:55:00,68.5,65.8,29.97,ENE,77,2.0,4.0,91,0.00,,,-99.99,FreeWX 2.05,2013-08-23 07:55:00,
2013-08-23 09:00:00,68.5,65.1,29.97,East,87,2.0,6.9,89,0.00,,,-99.99,FreeWX 2.05,2013-08-23 08:00:00,
2013-08-23 09:10:00,68.9,64.9,29.97,East,101,2.0,5.8,87,0.00,,,-99.99,FreeWX 2.05,2013-08-23 08:10:00,
2013-08-23 09:15:00,69.1,63.7,29.97,ESE,111,2.0,6.7,83,0.00,,,-99.99,FreeWX 2.05,2013-08-23 08:15:00,
2013-08-23 09:20:00,69.3,63.1,29.97,East,83,3.0,6.7,81,0.00,,,-99.99,FreeWX 2.05,2013-08-23 08:20:00,
2013-08-23 09:30:00,69.6,62.1,29.97,East,82,3.0,6.9,77,0.00,,,-99.99,FreeWX 2.05,2013-08-23 08:30:00,
2013-08-23 09:35:00,70.0,62.1,29.97,East,90,2.0,7.4,76,0.00,,,-99.99,FreeWX 2.05,2013-08-23 08:35:00,
2013-08-23 09:40:00,70.2,61.2,29.97,East,99,3.0,7.4,73,0.00,,,-99.99,FreeWX 2.05,2013-08-23 08:40:00,
2013-08-23 09:45:00,70.5,60.6,29.97,East,95,3.0,7.8,71,0.00,,,-99.99,FreeWX 2.05,2013-08-23 08:45:00,
2013-08-23 09:50:00,71.1,60.8,29.97,East,86,2.0,6.7,70,0.00,,,-99.99,FreeWX 2.05,2013-08-23 08:50:00,
2013-08-23 10:00:00,72.0,60.8,29.97,ENE,71,2.0,6.3,68,0.00,,,-99.99,FreeWX 2.05,2013-08-23 09:00:00,
2013-08-23 10:10:00,72.3,59.9,29.97,East,83,2.0,5.4,65,0.00,,,-99.99,FreeWX 2.05,2013-08-23 09:10:00,
2013-08-23 10:15:00,72.5,58.6,29.97,East,84,3.0,6.7,62,0.00,,,-99.99,FreeWX 2.05,2013-08-23 09:15:00,
2013-08-23 10:20:00,73.0,59.7,29.97,East,91,3.0,6.3,63,0.00,,,-99.99,FreeWX 2.05,2013-08-23 09:20:00,
2013-08-23 10:30:00,73.4,57.7,29.97,ESE,116,3.0,6.9,58,0.00,,,-99.99,FreeWX 2.05,2013-08-23 09:30:00,
2013-08-23 10:40:00,74.5,58.6,29.94,ENE,61,2.0,5.8,58,0.00,,,-99.99,FreeWX 2.05,2013-08-23 09:40:00,
2013-08-23 10:50:00,74.8,55.4,29.94,East,86,3.0,8.3,51,0.00,,,-99.99,FreeWX 2.05,2013-08-23 09:50:00,
2013-08-23 11:00:00,75.0,55.6,29.94,East,85,3.0,6.9,51,0.00,,,-99.99,FreeWX 2.05,2013-08-23 10:00:00,
2013-08-23 11:10:00,76.3,55.8,29.94,East,94,2.0,4.5,49,0.00,,,-99.99,FreeWX 2.05,2013-08-23 10:10:00,
2013-08-23 11:15:00,76.6,54.9,29.94,East,88,2.0,6.7,47,0.00,,,-99.99,FreeWX 2.05,2013-08-23 10:15:00,
2013-08-23 11:20:00,76.6,52.5,29.94,East,90,2.0,8.3,43,0.00,,,-99.99,FreeWX 2.05,2013-08-23 10:20:00,
2013-08-23 11:25:00,76.8,52.0,29.94,East,96,3.0,7.4,42,0.00,,,-99.99,FreeWX 2.05,2013-08-23 10:25:00,
2013-08-23 11:30:00,77.2,52.3,29.94,East,98,3.0,8.7,42,0.00,,,-99.99,FreeWX 2.05,2013-08-23 10:30:00,
2013-08-23 11:35:00,77.9,51.6,29.94,East,92,4.0,8.7,40,0.00,,,-99.99,FreeWX 2.05,2013-08-23 10:35:00,
2013-08-23 11:45:00,78.8,52.3,29.94,East,91,3.0,6.7,40,0.00,,,-99.99,FreeWX 2.05,2013-08-23 10:45:00,
2013-08-23 11:50:00,79.5,50.9,29.94,East,100,3.0,9.6,37,0.00,,,-99.99,FreeWX 2.05,2013-08-23 10:50:00,
2013-08-23 12:00:00,80.8,49.8,29.94,SE,134,3.0,7.4,34,0.00,,,-99.99,FreeWX 2.05,2013-08-23 11:00:00,
2013-08-23 12:10:00,81.0,48.4,29.94,SSE,153,4.0,8.3,32,0.00,,,-99.99,FreeWX 2.05,2013-08-23 11:10:00,
2013-08-23 12:15:00,81.0,49.1,29.94,SE,145,4.0,7.8,33,0.00,,,-99.99,FreeWX 2.05,2013-08-23 11:15:00,
2013-08-23 12:20:00,81.0,49.1,29.94,SE,130,3.0,7.8,33,0.00,,,-99.99,FreeWX 2.05,2013-08-23 11:20:00,
2013-08-23 12:30:00,80.1,48.4,29.94,East,92,3.0,8.3,33,0.00,,,-99.99,FreeWX 2.05,2013-08-23 11:30:00,
2013-08-23 12:40:00,79.9,49.8,29.91,SSE,150,2.0,7.8,35,0.00,,,-99.99,FreeWX 2.05,2013-08-23 11:40:00,
2013-08-23 12:45:00,80.1,50.0,29.91,SSE,162,3.0,7.8,35,0.00,,,-99.99,FreeWX 2.05,2013-08-23 11:45:00,
2013-08-23 12:55:00,80.1,49.1,29.91,SE,137,4.0,10.5,34,0.00,,,-99.99,FreeWX 2.05,2013-08-23 11:55:00,
2013-08-23 13:00:00,80.2,49.3,29.91,SE,135,4.0,9.6,34,0.00,,,-99.99,FreeWX 2.05,2013-08-23 12:00:00,
2013-08-23 13:10:00,80.4,49.5,29.91,East,99,4.0,10.5,34,0.00,,,-99.99,FreeWX 2.05,2013-08-23 12:10:00,
2013-08-23 13:20:00,81.5,49.6,29.91,ESE,116,3.0,9.2,33,0.00,,,-99.99,FreeWX 2.05,2013-08-23 12:20:00,
2013-08-23 13:25:00,81.9,49.1,29.91,SE,126,3.0,8.3,32,0.00,,,-99.99,FreeWX 2.05,2013-08-23 12:25:00,
2013-08-23 13:35:00,82.0,48.4,29.91,ESE,104,4.0,9.2,31,0.00,,,-99.99,FreeWX 2.05,2013-08-23 12:35:00,
2013-08-23 13:45:00,82.0,49.3,29.91,ESE,119,2.0,6.3,32,0.00,,,-99.99,FreeWX 2.05,2013-08-23 12:45:00,
2013-08-23 13:55:00,82.0,48.4,29.91,ESE,123,1.0,6.7,31,0.00,,,-99.99,FreeWX 2.05,2013-08-23 12:55:00,
2013-08-23 14:00:00,81.9,49.1,29.91,ESE,110,2.0,6.3,32,0.00,,,-99.99,FreeWX 2.05,2013-08-23 13:00:00,
2013-08-23 14:10:00,81.9,49.1,29.91,East,98,2.0,5.8,32,0.00,,,-99.99,FreeWX 2.05,2013-08-23 13:10:00,
2013-08-23 14:15:00,81.9,49.1,29.91,SE,125,1.0,5.4,32,0.00,,,-99.99,FreeWX 2.05,2013-08-23 13:15:00,
2013-08-23 14:20:00,81.9,49.1,29.91,SSE,149,2.0,5.4,32,0.00,,,-99.99,FreeWX 2.05,2013-08-23 13:20:00,
2013-08-23 14:25:00,81.9,48.2,29.91,SE,128,2.0,7.8,31,0.00,,,-99.99,FreeWX 2.05,2013-08-23 13:25:00,
2013-08-23 14:35:00,81.5,47.8,29.91,SE,144,2.0,5.8,31,0.00,,,-99.99,FreeWX 2.05,2013-08-23 13:35:00,
2013-08-23 14:40:00,81.5,47.8,29.91,SSE,154,2.0,4.9,31,0.00,,,-99.99,FreeWX 2.05,2013-08-23 13:40:00,
2013-08-23 14:50:00,81.7,48.0,29.91,SSE,156,2.0,6.7,31,0.00,,,-99.99,FreeWX 2.05,2013-08-23 13:50:00,
2013-08-23 14:55:00,81.5,47.8,29.91,SSE,154,2.0,5.4,31,0.00,,,-99.99,FreeWX 2.05,2013-08-23 13:55:00,
2013-08-23 15:00:00,81.3,47.8,29.91,SE,126,2.0,5.4,31,0.00,,,-99.99,FreeWX 2.05,2013-08-23 14:00:00,
2013-08-23 15:05:00,81.1,47.7,29.91,ESE,117,2.0,6.7,31,0.00,,,-99.99,FreeWX 2.05,2013-08-23 14:05:00,
2013-08-23 15:10:00,81.0,47.5,29.88,SE,131,2.0,6.9,31,0.00,,,-99.99,FreeWX 2.05,2013-08-23 14:10:00,
2013-08-23 15:15:00,80.8,47.3,29.88,SE,139,2.0,5.4,31,0.00,,,-99.99,FreeWX 2.05,2013-08-23 14:15:00,
2013-08-23 15:25:00,80.8,47.3,29.88,SE,143,2.0,4.9,31,0.00,,,-99.99,FreeWX 2.05,2013-08-23 14:25:00,
2013-08-23 15:30:00,80.4,46.9,29.88,SE,145,2.0,5.8,31,0.00,,,-99.99,FreeWX 2.05,2013-08-23 14:30:00,
2013-08-23 15:35:00,80.4,46.9,29.88,SE,144,2.0,8.3,31,0.00,,,-99.99,FreeWX 2.05,2013-08-23 14:35:00,
2013-08-23 15:40:00,80.2,46.8,29.88,SSE,153,2.0,4.9,31,0.00,,,-99.99,FreeWX 2.05,2013-08-23 14:40:00,
2013-08-23 15:50:00,79.7,45.5,29.88,SE,133,2.0,6.9,30,0.00,,,-99.99,FreeWX 2.05,2013-08-23 14:50:00,
2013-08-23 15:55:00,79.5,46.2,29.88,SE,141,1.0,4.9,31,0.00,,,-99.99,FreeWX 2.05,2013-08-23 14:55:00,
2013-08-23 16:00:00,79.5,46.2,29.88,SE,141,2.0,5.4,31,0.00,,,-99.99,FreeWX 2.05,2013-08-23 15:00:00,
2013-08-23 16:10:00,79.3,46.0,29.88,ESE,116,1.0,5.4,31,0.00,,,-99.99,FreeWX 2.05,2013-08-23 15:10:00,
2013-08-23 16:15:00,79.3,46.0,29.88,ESE,116,1.0,5.4,31,0.00,,,-99.99,FreeWX 2.05,2013-08-23 15:15:00,
2013-08-23 16:25:00,79.2,45.9,29.88,ESE,104,2.0,5.4,31,0.00,,,-99.99,FreeWX 2.05,2013-08-23 15:25:00,
2013-08-23 16:30:00,79.2,45.9,29.88,ESE,105,2.0,6.7,31,0.00,,,-99.99,FreeWX 2.05,2013-08-23 15:30:00,
2013-08-23 16:40:00,79.0,45.0,29.88,SE,138,2.0,7.4,30,0.00,,,-99.99,FreeWX 2.05,2013-08-23 15:40:00,
2013-08-23 16:45:00,78.8,44.8,29.88,ESE,112,2.0,7.8,30,0.00,,,-99.99,FreeWX 2.05,2013-08-23 15:45:00,
2013-08-23 16:50:00,78.8,44.8,29.88,SE,131,2.0,5.8,30,0.00,,,-99.99,FreeWX 2.05,2013-08-23 15:50:00,
2013-08-23 17:00:00,78.6,45.5,29.88,SE,142,1.0,4.0,31,0.00,,,-99.99,FreeWX 2.05,2013-08-23 16:00:00,
2013-08-23 17:05:00,78.4,45.3,29.88,SE,132,1.0,4.9,31,0.00,,,-99.99,FreeWX 2.05,2013-08-23 16:05:00,
2013-08-23 17:15:00,78.3,45.1,29.88,North,-999,0.0,2.7,31,0.00,,,-99.99,FreeWX 2.05,2013-08-23 16:15:00,
2013-08-23 17:20:00,78.3,45.1,29.88,North,-999,0.0,4.0,31,0.00,,,-99.99,FreeWX 2.05,2013-08-23 16:20:00,
2013-08-23 17:25:00,78.1,45.0,29.85,SE,146,1.0,5.8,31,0.00,,,-99.99,FreeWX 2.05,2013-08-23 16:25:00,
2013-08-23 17:35:00,77.9,44.8,29.85,North,-999,0.0,4.9,31,0.00,,,-99.99,FreeWX 2.05,2013-08-23 16:35:00,
2013-08-23 17:40:00,77.9,45.7,29.85,South,174,1.0,4.5,32,0.00,,,-99.99,FreeWX 2.05,2013-08-23 16:40:00,
2013-08-23 17:50:00,77.7,45.5,29.85,North,-999,0.0,4.0,32,0.00,,,-99.99,FreeWX 2.05,2013-08-23 16:50:00,
2013-08-23 17:55:00,77.7,45.5,29.85,ESE,122,1.0,4.9,32,0.00,,,-99.99,FreeWX 2.05,2013-08-23 16:55:00,
2013-08-23 18:00:00,77.7,45.5,29.85,ESE,114,2.0,4.9,32,0.00,,,-99.99,FreeWX 2.05,2013-08-23 17:00:00,
2013-08-23 18:10:00,77.7,45.5,29.85,North,-999,0.0,4.5,32,0.00,,,-99.99,FreeWX 2.05,2013-08-23 17:10:00,
2013-08-23 18:15:00,77.5,45.3,29.85,South,169,1.0,4.9,32,0.00,,,-99.99,FreeWX 2.05,2013-08-23 17:15:00,
2013-08-23 18:20:00,77.5,45.3,29.85,SSE,166,1.0,3.6,32,0.00,,,-99.99,FreeWX 2.05,2013-08-23 17:20:00,
2013-08-23 18:25:00,77.4,46.0,29.85,North,-999,0.0,3.6,33,0.00,,,-99.99,FreeWX 2.05,2013-08-23 17:25:00,
2013-08-23 18:30:00,77.4,46.0,29.85,North,-999,0.0,4.0,33,0.00,,,-99.99,FreeWX 2.05,2013-08-23 17:30:00,
2013-08-23 18:40:00,77.0,45.7,29.85,North,-999,0.0,4.0,33,0.00,,,-99.99,FreeWX 2.05,2013-08-23 17:40:00,
2013-08-23 18:45:00,76.8,47.1,29.85,North,-999,0.0,4.0,35,0.00,,,-99.99,FreeWX 2.05,2013-08-23 17:45:00,
2013-08-23 18:55:00,76.3,50.9,29.85,North,-999,0.0,4.5,41,0.00,,,-99.99,FreeWX 2.05,2013-08-23 17:55:00,
2013-08-23 19:00:00,75.9,51.8,29.85,East,97,1.0,5.4,43,0.00,,,-99.99,FreeWX 2.05,2013-08-23 18:00:00,
2013-08-23 19:10:00,75.4,52.5,29.85,East,88,1.0,4.9,45,0.00,,,-99.99,FreeWX 2.05,2013-08-23 18:10:00,
2013-08-23 19:15:00,75.2,53.1,29.85,North,-999,0.0,3.1,46,0.00,,,-99.99,FreeWX 2.05,2013-08-23 18:15:00,
2013-08-23 19:20:00,75.0,52.9,29.85,North,-999,0.0,0.0,46,0.00,,,-99.99,FreeWX 2.05,2013-08-23 18:20:00,
2013-08-23 19:25:00,75.0,52.9,29.85,North,-999,0.0,0.0,46,0.00,,,-99.99,FreeWX 2.05,2013-08-23 18:25:00,
2013-08-23 19:30:00,74.8,52.7,29.85,North,-999,0.0,0.0,46,0.00,,,-99.99,FreeWX 2.05,2013-08-23 18:30:00,
2013-08-23 19:40:00,74.3,53.2,29.85,North,-999,0.0,4.5,48,0.00,,,-99.99,FreeWX 2.05,2013-08-23 18:40:00,
2013-08-23 19:45:00,74.1,53.8,29.85,North,-999,0.0,0.0,49,0.00,,,-99.99,FreeWX 2.05,2013-08-23 18:45:00,
2013-08-23 19:50:00,73.9,53.6,29.85,North,-999,0.0,2.7,49,0.00,,,-99.99,FreeWX 2.05,2013-08-23 18:50:00,
2013-08-23 19:55:00,73.6,53.8,29.85,North,-999,0.0,3.1,50,0.00,,,-99.99,FreeWX 2.05,2013-08-23 18:55:00,
2013-08-23 20:00:00,73.4,53.6,29.85,North,-999,0.0,3.6,50,0.00,,,-99.99,FreeWX 2.05,2013-08-23 19:00:00,
2013-08-23 20:10:00,73.0,53.8,29.85,North,-999,0.0,0.0,51,0.00,,,-99.99,FreeWX 2.05,2013-08-23 19:10:00,
2013-08-23 20:15:00,72.9,54.1,29.85,North,-999,0.0,4.5,52,0.00,,,-99.99,FreeWX 2.05,2013-08-23 19:15:00,
2013-08-23 20:20:00,72.5,54.3,29.85,North,-999,0.0,5.4,53,0.00,,,-99.99,FreeWX 2.05,2013-08-23 19:20:00,
2013-08-23 20:30:00,72.1,54.5,29.85,North,-999,0.0,3.1,54,0.00,,,-99.99,FreeWX 2.05,2013-08-23 19:30:00,
2013-08-23 20:35:00,72.0,54.9,29.85,North,-999,0.0,0.0,55,0.00,,,-99.99,FreeWX 2.05,2013-08-23 19:35:00,
2013-08-23 20:40:00,72.0,54.9,29.85,North,-999,0.0,3.1,55,0.00,,,-99.99,FreeWX 2.05,2013-08-23 19:40:00,
2013-08-23 20:50:00,71.8,55.2,29.85,North,-999,0.0,0.0,56,0.00,,,-99.99,FreeWX 2.05,2013-08-23 19:50:00,
2013-08-23 20:55:00,71.6,55.0,29.85,North,-999,0.0,4.0,56,0.00,,,-99.99,FreeWX 2.05,2013-08-23 19:55:00,
2013-08-23 21:00:00,71.6,55.0,29.85,North,-999,0.0,3.1,56,0.00,,,-99.99,FreeWX 2.05,2013-08-23 20:00:00,
2013-08-23 21:10:00,71.4,54.9,29.85,North,-999,0.0,0.0,56,0.00,,,-99.99,FreeWX 2.05,2013-08-23 20:10:00,
2013-08-23 21:15:00,71.2,54.7,29.85,North,-999,0.0,0.0,56,0.00,,,-99.99,FreeWX 2.05,2013-08-23 20:15:00,
2013-08-23 21:20:00,71.2,54.7,29.85,North,-999,0.0,0.0,56,0.00,,,-99.99,FreeWX 2.05,2013-08-23 20:20:00,
2013-08-23 21:30:00,70.9,54.9,29.85,North,-999,0.0,0.0,57,0.00,,,-99.99,FreeWX 2.05,2013-08-23 20:30:00,
2013-08-23 21:40:00,70.7,54.7,29.85,North,-999,0.0,0.0,57,0.00,,,-99.99,FreeWX 2.05,2013-08-23 20:40:00,
2013-08-23 21:45:00,70.5,54.5,29.85,North,-999,0.0,0.0,57,0.00,,,-99.99,FreeWX 2.05,2013-08-23 20:45:00,
2013-08-23 21:55:00,70.2,54.1,29.85,North,-999,0.0,0.0,57,0.00,,,-99.99,FreeWX 2.05,2013-08-23 20:55:00,
2013-08-23 22:00:00,70.0,54.5,29.85,North,-999,0.0,0.0,58,0.00,,,-99.99,FreeWX 2.05,2013-08-23 21:00:00,
2013-08-23 22:05:00,69.8,54.3,29.85,North,-999,0.0,0.0,58,0.00,,,-99.99,FreeWX 2.05,2013-08-23 21:05:00,
2013-08-23 22:10:00,69.6,54.1,29.85,North,-999,0.0,0.0,58,0.00,,,-99.99,FreeWX 2.05,2013-08-23 21:10:00,
2013-08-23 22:20:00,69.4,54.5,29.85,North,-999,0.0,0.0,59,0.00,,,-99.99,FreeWX 2.05,2013-08-23 21:20:00,
2013-08-23 22:30:00,69.3,54.3,29.85,North,-999,0.0,0.0,59,0.00,,,-99.99,FreeWX 2.05,2013-08-23 21:30:00,
2013-08-23 22:35:00,69.1,54.7,29.85,North,-999,0.0,0.0,60,0.00,,,-99.99,FreeWX 2.05,2013-08-23 21:35:00,
2013-08-23 22:40:00,69.1,54.7,29.85,North,-999,0.0,0.0,60,0.00,,,-99.99,FreeWX 2.05,2013-08-23 21:40:00,
2013-08-23 22:45:00,69.1,54.7,29.85,North,-999,0.0,0.0,60,0.00,,,-99.99,FreeWX 2.05,2013-08-23 21:45:00,
2013-08-23 22:50:00,69.1,55.0,29.85,North,-999,0.0,0.0,61,0.00,,,-99.99,FreeWX 2.05,2013-08-23 21:50:00,
2013-08-23 22:55:00,69.1,55.0,29.85,North,-999,0.0,0.0,61,0.00,,,-99.99,FreeWX 2.05,2013-08-23 21:55:00,
2013-08-23 23:00:00,68.9,54.9,29.85,North,-999,0.0,0.0,61,0.00,,,-99.99,FreeWX 2.05,2013-08-23 22:00:00,
2013-08-23 23:10:00,68.7,55.2,29.85,North,-999,0.0,0.0,62,0.00,,,-99.99,FreeWX 2.05,2013-08-23 22:10:00,
2013-08-23 23:20:00,68.5,55.0,29.85,North,-999,0.0,0.0,62,0.00,,,-99.99,FreeWX 2.05,2013-08-23 22:20:00,
2013-08-23 23:25:00,68.4,55.2,29.85,North,-999,0.0,0.0,63,0.00,,,-99.99,FreeWX 2.05,2013-08-23 22:25:00,
2013-08-23 23:30:00,68.4,55.2,29.85,North,-999,0.0,0.0,63,0.00,,,-99.99,FreeWX 2.05,2013-08-23 22:30:00,
2013-08-23 23:35:00,68.2,55.0,29.85,North,-999,0.0,0.0,63,0.00,,,-99.99,FreeWX 2.05,2013-08-23 22:35:00,
2013-08-23 23:40:00,68.0,55.4,29.85,North,-999,0.0,0.0,64,0.00,,,-99.99,FreeWX 2.05,2013-08-23 22:40:00,
2013-08-23 23:45:00,67.8,55.2,29.85,North,-999,0.0,0.0,64,0.00,,,-99.99,FreeWX 2.05,2013-08-23 22:45:00,
2013-08-23 23:55:00,67.8,55.6,29.85,North,-999,0.0,0.0,65,0.00,,,-99.99,FreeWX 2.05,2013-08-23 22:55:00,